sensor_id;sensor_type;location;lat;lon;timestamp;temperature;humidity
44565;DHT22;30275;51.822;-0.326;2023-05-07T00:01:53;12.10;99.90
44565;DHT22;30275;51.822;-0.326;2023-05-07T00:04:19;12.20;99.90
44565;DHT22;30275;51.822;-0.326;2023-05-07T00:06:44;12.30;99.90
44565;DHT22;30275;51.822;-0.326;2023-05-07T00:09:10;12.30;99.90
44565;DHT22;30275;51.822;-0.326;2023-05-07T00:11:36;12.40;99.90
44565;DHT22;30275;51.822;-0.326;2023-05-07T00:14:01;12.40;99.90
44565;DHT22;30275;51.822;-0.326;2023-05-07T00:16:27;12.50;99.90
44565;DHT22;30275;51.822;-0.326;2023-05-07T00:18:53;12.40;99.90
44565;DHT22;30275;51.822;-0.326;2023-05-07T00:21:18;12.50;99.90
44565;DHT22;30275;51.822;-0.326;2023-05-07T00:23:44;12.50;99.90
44565;DHT22;30275;51.822;-0.326;2023-05-07T00:26:10;12.40;99.90
44565;DHT22;30275;51.822;-0.326;2023-05-07T00:28:35;12.40;99.90
44565;DHT22;30275;51.822;-0.326;2023-05-07T00:31:01;12.50;99.90
44565;DHT22;30275;51.822;-0.326;2023-05-07T00:33:27;12.50;99.90
44565;DHT22;30275;51.822;-0.326;2023-05-07T00:35:52;12.50;99.90
44565;DHT22;30275;51.822;-0.326;2023-05-07T00:38:19;12.40;99.90
44565;DHT22;30275;51.822;-0.326;2023-05-07T00:40:45;12.30;99.90
44565;DHT22;30275;51.822;-0.326;2023-05-07T00:43:11;12.40;99.90
44565;DHT22;30275;51.822;-0.326;2023-05-07T00:45:38;12.40;99.90
44565;DHT22;30275;51.822;-0.326;2023-05-07T00:48:04;12.30;99.90
44565;DHT22;30275;51.822;-0.326;2023-05-07T00:50:29;12.40;99.90
44565;DHT22;30275;51.822;-0.326;2023-05-07T00:52:56;12.40;99.90
44565;DHT22;30275;51.822;-0.326;2023-05-07T00:55:23;12.40;99.90
44565;DHT22;30275;51.822;-0.326;2023-05-07T00:57:49;12.50;99.90
44565;DHT22;30275;51.822;-0.326;2023-05-07T01:00:16;12.50;99.90
44565;DHT22;30275;51.822;-0.326;2023-05-07T01:02:42;12.50;99.90
44565;DHT22;30275;51.822;-0.326;2023-05-07T01:05:11;12.40;99.90
44565;DHT22;30275;51.822;-0.326;2023-05-07T01:07:39;12.40;99.90
44565;DHT22;30275;51.822;-0.326;2023-05-07T01:10:06;12.30;99.90
44565;DHT22;30275;51.822;-0.326;2023-05-07T01:12:33;12.40;99.90
44565;DHT22;30275;51.822;-0.326;2023-05-07T01:14:59;12.40;99.90
44565;DHT22;30275;51.822;-0.326;2023-05-07T01:17:25;12.40;99.90
44565;DHT22;30275;51.822;-0.326;2023-05-07T01:19:50;12.40;99.90
44565;DHT22;30275;51.822;-0.326;2023-05-07T01:22:33;12.30;99.90
44565;DHT22;30275;51.822;-0.326;2023-05-07T01:24:59;12.30;99.90
44565;DHT22;30275;51.822;-0.326;2023-05-07T01:27:27;12.30;99.90
44565;DHT22;30275;51.822;-0.326;2023-05-07T01:29:52;12.30;99.90
44565;DHT22;30275;51.822;-0.326;2023-05-07T01:32:23;12.30;99.90
44565;DHT22;30275;51.822;-0.326;2023-05-07T01:34:52;12.30;99.90
44565;DHT22;30275;51.822;-0.326;2023-05-07T01:37:20;12.30;99.90
44565;DHT22;30275;51.822;-0.326;2023-05-07T01:39:47;12.30;99.90
44565;DHT22;30275;51.822;-0.326;2023-05-07T01:42:13;12.30;99.90
44565;DHT22;30275;51.822;-0.326;2023-05-07T01:44:39;12.20;99.90
44565;DHT22;30275;51.822;-0.326;2023-05-07T01:47:05;12.30;99.90
44565;DHT22;30275;51.822;-0.326;2023-05-07T01:49:31;12.30;99.90
44565;DHT22;30275;51.822;-0.326;2023-05-07T01:51:58;12.30;99.90
44565;DHT22;30275;51.822;-0.326;2023-05-07T01:54:27;12.30;99.90
44565;DHT22;30275;51.822;-0.326;2023-05-07T01:56:59;12.30;99.90
44565;DHT22;30275;51.822;-0.326;2023-05-07T01:59:25;12.30;99.90
44565;DHT22;30275;51.822;-0.326;2023-05-07T02:01:50;12.30;99.90
44565;DHT22;30275;51.822;-0.326;2023-05-07T02:04:17;12.40;99.90
44565;DHT22;30275;51.822;-0.326;2023-05-07T02:06:43;12.40;99.90
44565;DHT22;30275;51.822;-0.326;2023-05-07T02:09:08;12.40;99.90
44565;DHT22;30275;51.822;-0.326;2023-05-07T02:11:34;12.40;99.90
44565;DHT22;30275;51.822;-0.326;2023-05-07T02:14:00;12.30;99.90
44565;DHT22;30275;51.822;-0.326;2023-05-07T02:16:25;12.30;99.90
44565;DHT22;30275;51.822;-0.326;2023-05-07T02:18:51;12.20;99.90
44565;DHT22;30275;51.822;-0.326;2023-05-07T02:21:17;12.20;99.90
44565;DHT22;30275;51.822;-0.326;2023-05-07T02:23:42;12.20;99.90
44565;DHT22;30275;51.822;-0.326;2023-05-07T02:26:08;12.20;99.90
44565;DHT22;30275;51.822;-0.326;2023-05-07T02:28:33;12.30;99.90
44565;DHT22;30275;51.822;-0.326;2023-05-07T02:31:03;12.20;99.90
44565;DHT22;30275;51.822;-0.326;2023-05-07T02:33:29;12.30;99.90
44565;DHT22;30275;51.822;-0.326;2023-05-07T02:35:55;12.40;99.90
44565;DHT22;30275;51.822;-0.326;2023-05-07T02:38:20;12.40;99.90
44565;DHT22;30275;51.822;-0.326;2023-05-07T02:40:46;12.40;99.90
44565;DHT22;30275;51.822;-0.326;2023-05-07T02:43:11;12.40;99.90
44565;DHT22;30275;51.822;-0.326;2023-05-07T02:45:37;12.40;99.90
44565;DHT22;30275;51.822;-0.326;2023-05-07T02:48:03;12.40;99.90
44565;DHT22;30275;51.822;-0.326;2023-05-07T02:50:29;12.40;99.90
44565;DHT22;30275;51.822;-0.326;2023-05-07T02:52:55;12.40;99.90
44565;DHT22;30275;51.822;-0.326;2023-05-07T02:55:20;12.40;99.90
44565;DHT22;30275;51.822;-0.326;2023-05-07T02:57:46;12.40;99.90
44565;DHT22;30275;51.822;-0.326;2023-05-07T03:00:16;12.40;99.90
44565;DHT22;30275;51.822;-0.326;2023-05-07T03:02:42;12.50;99.90
44565;DHT22;30275;51.822;-0.326;2023-05-07T03:05:07;12.50;99.90
44565;DHT22;30275;51.822;-0.326;2023-05-07T03:07:35;12.50;99.90
44565;DHT22;30275;51.822;-0.326;2023-05-07T03:10:01;12.60;99.90
44565;DHT22;30275;51.822;-0.326;2023-05-07T03:12:26;12.60;99.90
44565;DHT22;30275;51.822;-0.326;2023-05-07T03:14:52;12.60;99.90
44565;DHT22;30275;51.822;-0.326;2023-05-07T03:17:17;12.70;99.90
44565;DHT22;30275;51.822;-0.326;2023-05-07T03:19:43;12.70;99.90
44565;DHT22;30275;51.822;-0.326;2023-05-07T03:22:08;12.80;99.90
44565;DHT22;30275;51.822;-0.326;2023-05-07T03:24:34;12.60;99.90
44565;DHT22;30275;51.822;-0.326;2023-05-07T03:26:59;12.60;99.90
44565;DHT22;30275;51.822;-0.326;2023-05-07T03:29:26;12.60;99.90
44565;DHT22;30275;51.822;-0.326;2023-05-07T03:31:52;12.70;99.90
44565;DHT22;30275;51.822;-0.326;2023-05-07T03:34:17;12.80;99.90
44565;DHT22;30275;51.822;-0.326;2023-05-07T03:36:50;12.80;99.90
44565;DHT22;30275;51.822;-0.326;2023-05-07T03:39:15;12.80;99.90
44565;DHT22;30275;51.822;-0.326;2023-05-07T03:41:41;12.90;99.90
44565;DHT22;30275;51.822;-0.326;2023-05-07T03:44:07;12.70;99.90
44565;DHT22;30275;51.822;-0.326;2023-05-07T03:46:33;12.60;99.90
44565;DHT22;30275;51.822;-0.326;2023-05-07T03:48:59;12.60;99.90
44565;DHT22;30275;51.822;-0.326;2023-05-07T03:51:25;12.50;99.90
44565;DHT22;30275;51.822;-0.326;2023-05-07T03:53:51;12.50;99.90
44565;DHT22;30275;51.822;-0.326;2023-05-07T03:56:18;12.50;99.90
44565;DHT22;30275;51.822;-0.326;2023-05-07T03:58:44;12.40;99.90
44565;DHT22;30275;51.822;-0.326;2023-05-07T04:01:10;12.50;99.90
44565;DHT22;30275;51.822;-0.326;2023-05-07T04:03:36;12.40;99.90
44565;DHT22;30275;51.822;-0.326;2023-05-07T04:06:01;12.50;99.90
44565;DHT22;30275;51.822;-0.326;2023-05-07T04:08:27;12.50;99.90
44565;DHT22;30275;51.822;-0.326;2023-05-07T04:10:58;12.50;99.90
44565;DHT22;30275;51.822;-0.326;2023-05-07T04:13:25;12.50;99.90
44565;DHT22;30275;51.822;-0.326;2023-05-07T04:15:51;12.50;99.90
44565;DHT22;30275;51.822;-0.326;2023-05-07T04:18:17;12.50;99.90
44565;DHT22;30275;51.822;-0.326;2023-05-07T04:20:43;12.40;99.90
44565;DHT22;30275;51.822;-0.326;2023-05-07T04:23:09;12.50;99.90
44565;DHT22;30275;51.822;-0.326;2023-05-07T04:25:34;12.60;99.90
44565;DHT22;30275;51.822;-0.326;2023-05-07T04:28:00;12.60;99.90
44565;DHT22;30275;51.822;-0.326;2023-05-07T04:30:26;12.60;99.90
44565;DHT22;30275;51.822;-0.326;2023-05-07T04:32:52;12.60;99.90
44565;DHT22;30275;51.822;-0.326;2023-05-07T04:35:18;12.60;99.90
44565;DHT22;30275;51.822;-0.326;2023-05-07T04:37:44;12.60;99.90
44565;DHT22;30275;51.822;-0.326;2023-05-07T04:40:10;12.70;99.90
44565;DHT22;30275;51.822;-0.326;2023-05-07T04:42:35;12.60;99.90
44565;DHT22;30275;51.822;-0.326;2023-05-07T04:45:02;12.60;99.90
44565;DHT22;30275;51.822;-0.326;2023-05-07T04:47:27;12.70;99.90
44565;DHT22;30275;51.822;-0.326;2023-05-07T04:49:53;12.70;99.90
44565;DHT22;30275;51.822;-0.326;2023-05-07T04:52:18;12.80;99.90
44565;DHT22;30275;51.822;-0.326;2023-05-07T04:54:44;12.90;99.90
44565;DHT22;30275;51.822;-0.326;2023-05-07T04:57:09;12.80;99.90
44565;DHT22;30275;51.822;-0.326;2023-05-07T04:59:35;12.90;99.90
44565;DHT22;30275;51.822;-0.326;2023-05-07T05:02:01;12.90;99.90
44565;DHT22;30275;51.822;-0.326;2023-05-07T05:04:27;13.00;99.90
44565;DHT22;30275;51.822;-0.326;2023-05-07T05:06:52;13.00;99.90
44565;DHT22;30275;51.822;-0.326;2023-05-07T05:09:18;13.20;99.90
44565;DHT22;30275;51.822;-0.326;2023-05-07T05:11:44;13.20;99.90
44565;DHT22;30275;51.822;-0.326;2023-05-07T05:14:09;13.40;99.90
44565;DHT22;30275;51.822;-0.326;2023-05-07T05:16:35;13.50;99.90
44565;DHT22;30275;51.822;-0.326;2023-05-07T05:19:02;13.60;99.90
44565;DHT22;30275;51.822;-0.326;2023-05-07T05:21:27;13.70;99.90
44565;DHT22;30275;51.822;-0.326;2023-05-07T05:23:53;13.80;99.90
44565;DHT22;30275;51.822;-0.326;2023-05-07T05:26:19;13.90;99.90
44565;DHT22;30275;51.822;-0.326;2023-05-07T05:28:46;13.90;99.90
44565;DHT22;30275;51.822;-0.326;2023-05-07T05:31:12;13.80;99.90
44565;DHT22;30275;51.822;-0.326;2023-05-07T05:33:37;13.90;99.90
44565;DHT22;30275;51.822;-0.326;2023-05-07T05:36:03;14.10;99.90
44565;DHT22;30275;51.822;-0.326;2023-05-07T05:38:29;14.30;99.90
44565;DHT22;30275;51.822;-0.326;2023-05-07T05:40:55;14.40;99.90
44565;DHT22;30275;51.822;-0.326;2023-05-07T05:43:20;14.20;99.90
44565;DHT22;30275;51.822;-0.326;2023-05-07T05:45:46;14.00;99.90
44565;DHT22;30275;51.822;-0.326;2023-05-07T05:48:12;14.00;99.90
44565;DHT22;30275;51.822;-0.326;2023-05-07T05:50:37;14.00;99.90
44565;DHT22;30275;51.822;-0.326;2023-05-07T05:53:03;13.90;99.90
44565;DHT22;30275;51.822;-0.326;2023-05-07T05:55:29;13.90;99.90
44565;DHT22;30275;51.822;-0.326;2023-05-07T05:57:54;14.10;99.90
44565;DHT22;30275;51.822;-0.326;2023-05-07T06:00:20;14.30;99.90
44565;DHT22;30275;51.822;-0.326;2023-05-07T06:02:48;14.40;99.90
44565;DHT22;30275;51.822;-0.326;2023-05-07T06:05:13;14.20;99.90
44565;DHT22;30275;51.822;-0.326;2023-05-07T06:07:39;14.20;99.90
44565;DHT22;30275;51.822;-0.326;2023-05-07T06:10:05;14.40;99.90
44565;DHT22;30275;51.822;-0.326;2023-05-07T06:12:31;14.70;99.90
44565;DHT22;30275;51.822;-0.326;2023-05-07T06:14:57;14.70;99.90
44565;DHT22;30275;51.822;-0.326;2023-05-07T06:17:22;14.70;99.90
44565;DHT22;30275;51.822;-0.326;2023-05-07T06:19:48;14.70;99.90
44565;DHT22;30275;51.822;-0.326;2023-05-07T06:22:13;14.70;99.90
44565;DHT22;30275;51.822;-0.326;2023-05-07T06:24:39;14.60;99.90
44565;DHT22;30275;51.822;-0.326;2023-05-07T06:27:04;14.70;99.90
44565;DHT22;30275;51.822;-0.326;2023-05-07T06:29:33;14.60;99.90
44565;DHT22;30275;51.822;-0.326;2023-05-07T06:32:19;14.40;99.90
44565;DHT22;30275;51.822;-0.326;2023-05-07T06:34:44;14.30;99.90
44565;DHT22;30275;51.822;-0.326;2023-05-07T06:37:10;14.20;99.90
44565;DHT22;30275;51.822;-0.326;2023-05-07T06:39:36;14.40;99.90
44565;DHT22;30275;51.822;-0.326;2023-05-07T06:42:01;14.30;99.90
44565;DHT22;30275;51.822;-0.326;2023-05-07T06:44:27;14.30;99.90
44565;DHT22;30275;51.822;-0.326;2023-05-07T06:46:53;14.30;99.90
44565;DHT22;30275;51.822;-0.326;2023-05-07T06:49:19;14.30;99.90
44565;DHT22;30275;51.822;-0.326;2023-05-07T06:51:44;14.20;99.90
44565;DHT22;30275;51.822;-0.326;2023-05-07T06:54:10;14.20;99.90
44565;DHT22;30275;51.822;-0.326;2023-05-07T06:56:35;14.20;99.90
44565;DHT22;30275;51.822;-0.326;2023-05-07T06:59:02;14.40;99.90
44565;DHT22;30275;51.822;-0.326;2023-05-07T07:01:28;14.30;99.90
44565;DHT22;30275;51.822;-0.326;2023-05-07T07:03:54;14.60;99.90
44565;DHT22;30275;51.822;-0.326;2023-05-07T07:06:20;14.90;99.90
44565;DHT22;30275;51.822;-0.326;2023-05-07T07:08:45;15.00;99.90
44565;DHT22;30275;51.822;-0.326;2023-05-07T07:11:11;15.00;99.90
44565;DHT22;30275;51.822;-0.326;2023-05-07T07:13:37;14.90;99.90
44565;DHT22;30275;51.822;-0.326;2023-05-07T07:16:03;15.10;99.90
44565;DHT22;30275;51.822;-0.326;2023-05-07T07:18:28;15.10;99.90
44565;DHT22;30275;51.822;-0.326;2023-05-07T07:20:54;15.10;99.90
44565;DHT22;30275;51.822;-0.326;2023-05-07T07:23:20;15.40;99.90
44565;DHT22;30275;51.822;-0.326;2023-05-07T07:25:46;15.30;99.90
44565;DHT22;30275;51.822;-0.326;2023-05-07T07:28:12;15.50;99.90
44565;DHT22;30275;51.822;-0.326;2023-05-07T07:30:38;15.50;99.90
44565;DHT22;30275;51.822;-0.326;2023-05-07T07:33:04;15.40;99.90
44565;DHT22;30275;51.822;-0.326;2023-05-07T07:35:33;15.20;99.90
44565;DHT22;30275;51.822;-0.326;2023-05-07T07:37:59;15.30;99.90
44565;DHT22;30275;51.822;-0.326;2023-05-07T07:40:25;15.40;99.90
44565;DHT22;30275;51.822;-0.326;2023-05-07T07:42:54;15.60;99.90
44565;DHT22;30275;51.822;-0.326;2023-05-07T07:45:20;15.60;99.90
44565;DHT22;30275;51.822;-0.326;2023-05-07T07:47:46;15.50;99.90
44565;DHT22;30275;51.822;-0.326;2023-05-07T07:50:11;15.50;99.90
44565;DHT22;30275;51.822;-0.326;2023-05-07T07:52:37;15.40;99.90
44565;DHT22;30275;51.822;-0.326;2023-05-07T07:55:03;15.50;99.90
44565;DHT22;30275;51.822;-0.326;2023-05-07T07:57:29;15.50;99.90
44565;DHT22;30275;51.822;-0.326;2023-05-07T07:59:55;15.60;99.90
44565;DHT22;30275;51.822;-0.326;2023-05-07T08:02:21;15.70;99.90
44565;DHT22;30275;51.822;-0.326;2023-05-07T08:04:46;15.70;99.90
44565;DHT22;30275;51.822;-0.326;2023-05-07T08:07:12;15.80;99.90
44565;DHT22;30275;51.822;-0.326;2023-05-07T08:09:39;15.90;99.90
44565;DHT22;30275;51.822;-0.326;2023-05-07T08:12:05;15.90;99.90
44565;DHT22;30275;51.822;-0.326;2023-05-07T08:14:31;15.80;99.90
44565;DHT22;30275;51.822;-0.326;2023-05-07T08:16:57;15.80;99.90
44565;DHT22;30275;51.822;-0.326;2023-05-07T08:19:22;15.80;99.90
44565;DHT22;30275;51.822;-0.326;2023-05-07T08:21:48;15.70;99.90
44565;DHT22;30275;51.822;-0.326;2023-05-07T08:24:14;15.90;99.90
44565;DHT22;30275;51.822;-0.326;2023-05-07T08:26:40;16.10;99.90
44565;DHT22;30275;51.822;-0.326;2023-05-07T08:29:06;16.00;99.90
44565;DHT22;30275;51.822;-0.326;2023-05-07T08:31:32;16.10;99.90
44565;DHT22;30275;51.822;-0.326;2023-05-07T08:33:58;16.10;99.90
44565;DHT22;30275;51.822;-0.326;2023-05-07T08:36:24;16.10;99.90
44565;DHT22;30275;51.822;-0.326;2023-05-07T08:38:51;16.00;99.90
44565;DHT22;30275;51.822;-0.326;2023-05-07T08:41:16;15.70;99.90
44565;DHT22;30275;51.822;-0.326;2023-05-07T08:43:47;16.20;99.90
44565;DHT22;30275;51.822;-0.326;2023-05-07T08:46:19;16.40;99.90
44565;DHT22;30275;51.822;-0.326;2023-05-07T08:48:48;16.50;99.90
44565;DHT22;30275;51.822;-0.326;2023-05-07T08:51:17;16.30;99.90
44565;DHT22;30275;51.822;-0.326;2023-05-07T08:53:43;16.10;99.90
44565;DHT22;30275;51.822;-0.326;2023-05-07T08:56:09;16.20;99.90
44565;DHT22;30275;51.822;-0.326;2023-05-07T08:58:35;16.30;99.90
44565;DHT22;30275;51.822;-0.326;2023-05-07T09:01:06;16.90;99.90
44565;DHT22;30275;51.822;-0.326;2023-05-07T09:03:32;17.20;99.90
44565;DHT22;30275;51.822;-0.326;2023-05-07T09:05:58;18.70;99.90
44565;DHT22;30275;51.822;-0.326;2023-05-07T09:08:26;21.40;99.90
44565;DHT22;30275;51.822;-0.326;2023-05-07T09:10:52;22.10;99.90
44565;DHT22;30275;51.822;-0.326;2023-05-07T09:13:18;22.60;99.90
44565;DHT22;30275;51.822;-0.326;2023-05-07T09:15:44;22.40;99.90
44565;DHT22;30275;51.822;-0.326;2023-05-07T09:18:10;22.00;99.90
44565;DHT22;30275;51.822;-0.326;2023-05-07T09:20:40;23.40;99.90
44565;DHT22;30275;51.822;-0.326;2023-05-07T09:23:07;25.50;99.90
44565;DHT22;30275;51.822;-0.326;2023-05-07T09:25:33;24.30;99.90
44565;DHT22;30275;51.822;-0.326;2023-05-07T09:28:04;23.10;99.90
44565;DHT22;30275;51.822;-0.326;2023-05-07T09:30:32;21.00;99.90
44565;DHT22;30275;51.822;-0.326;2023-05-07T09:33:02;20.30;99.90
44565;DHT22;30275;51.822;-0.326;2023-05-07T09:35:29;19.10;99.90
44565;DHT22;30275;51.822;-0.326;2023-05-07T09:37:59;18.50;99.90
44565;DHT22;30275;51.822;-0.326;2023-05-07T09:40:28;17.90;99.90
44565;DHT22;30275;51.822;-0.326;2023-05-07T09:42:55;17.40;99.90
44565;DHT22;30275;51.822;-0.326;2023-05-07T09:45:27;17.30;99.90
44565;DHT22;30275;51.822;-0.326;2023-05-07T09:47:56;17.20;99.90
44565;DHT22;30275;51.822;-0.326;2023-05-07T09:50:49;17.20;99.90
44565;DHT22;30275;51.822;-0.326;2023-05-07T09:53:17;17.20;99.90
44565;DHT22;30275;51.822;-0.326;2023-05-07T09:55:43;17.50;99.90
44565;DHT22;30275;51.822;-0.326;2023-05-07T09:58:12;17.50;99.90
44565;DHT22;30275;51.822;-0.326;2023-05-07T10:00:39;17.60;99.90
44565;DHT22;30275;51.822;-0.326;2023-05-07T10:03:08;18.00;99.90
44565;DHT22;30275;51.822;-0.326;2023-05-07T10:05:35;17.90;99.90
44565;DHT22;30275;51.822;-0.326;2023-05-07T10:08:01;18.10;99.90
44565;DHT22;30275;51.822;-0.326;2023-05-07T10:10:27;18.10;99.90
44565;DHT22;30275;51.822;-0.326;2023-05-07T10:12:54;17.80;99.90
44565;DHT22;30275;51.822;-0.326;2023-05-07T10:15:20;18.00;99.90
44565;DHT22;30275;51.822;-0.326;2023-05-07T10:17:46;18.50;99.90
44565;DHT22;30275;51.822;-0.326;2023-05-07T10:20:13;18.50;99.90
44565;DHT22;30275;51.822;-0.326;2023-05-07T10:22:41;18.40;99.90
44565;DHT22;30275;51.822;-0.326;2023-05-07T10:25:17;18.40;99.90
44565;DHT22;30275;51.822;-0.326;2023-05-07T10:27:44;18.40;99.90
44565;DHT22;30275;51.822;-0.326;2023-05-07T10:30:26;18.90;99.90
44565;DHT22;30275;51.822;-0.326;2023-05-07T10:32:56;19.60;99.90
44565;DHT22;30275;51.822;-0.326;2023-05-07T10:35:32;20.50;99.90
44565;DHT22;30275;51.822;-0.326;2023-05-07T10:38:02;21.00;99.90
44565;DHT22;30275;51.822;-0.326;2023-05-07T10:40:28;21.60;99.90
44565;DHT22;30275;51.822;-0.326;2023-05-07T10:42:59;22.00;99.90
44565;DHT22;30275;51.822;-0.326;2023-05-07T10:45:26;21.80;99.90
44565;DHT22;30275;51.822;-0.326;2023-05-07T10:50:39;21.00;99.90
44565;DHT22;30275;51.822;-0.326;2023-05-07T10:55:48;20.90;99.90
44565;DHT22;30275;51.822;-0.326;2023-05-07T10:58:29;20.10;99.90
44565;DHT22;30275;51.822;-0.326;2023-05-07T11:00:57;20.40;99.90
44565;DHT22;30275;51.822;-0.326;2023-05-07T11:03:23;20.30;99.90
44565;DHT22;30275;51.822;-0.326;2023-05-07T11:06:12;20.00;99.90
44565;DHT22;30275;51.822;-0.326;2023-05-07T11:08:56;20.30;99.90
44565;DHT22;30275;51.822;-0.326;2023-05-07T11:14:09;18.60;99.90
44565;DHT22;30275;51.822;-0.326;2023-05-07T11:16:35;18.10;99.90
44565;DHT22;30275;51.822;-0.326;2023-05-07T11:19:03;18.00;99.90
44565;DHT22;30275;51.822;-0.326;2023-05-07T11:21:36;17.90;99.90
44565;DHT22;30275;51.822;-0.326;2023-05-07T11:24:03;17.90;99.90
44565;DHT22;30275;51.822;-0.326;2023-05-07T11:26:31;17.90;99.90
44565;DHT22;30275;51.822;-0.326;2023-05-07T11:28:57;18.10;99.90
44565;DHT22;30275;51.822;-0.326;2023-05-07T11:31:25;18.30;99.90
44565;DHT22;30275;51.822;-0.326;2023-05-07T11:33:53;18.30;99.90
44565;DHT22;30275;51.822;-0.326;2023-05-07T11:36:20;18.10;99.90
44565;DHT22;30275;51.822;-0.326;2023-05-07T11:38:46;17.90;99.90
44565;DHT22;30275;51.822;-0.326;2023-05-07T11:41:11;18.30;99.90
44565;DHT22;30275;51.822;-0.326;2023-05-07T11:43:37;18.30;99.90
44565;DHT22;30275;51.822;-0.326;2023-05-07T11:46:14;18.50;99.90
44565;DHT22;30275;51.822;-0.326;2023-05-07T11:48:39;18.70;99.90
44565;DHT22;30275;51.822;-0.326;2023-05-07T11:51:07;19.40;99.90
44565;DHT22;30275;51.822;-0.326;2023-05-07T11:53:39;19.90;99.90
44565;DHT22;30275;51.822;-0.326;2023-05-07T11:56:10;20.50;99.90
44565;DHT22;30275;51.822;-0.326;2023-05-07T11:58:36;21.80;99.90
44565;DHT22;30275;51.822;-0.326;2023-05-07T12:01:02;21.80;99.90
44565;DHT22;30275;51.822;-0.326;2023-05-07T12:03:28;21.90;99.90
44565;DHT22;30275;51.822;-0.326;2023-05-07T12:05:54;22.10;99.90
44565;DHT22;30275;51.822;-0.326;2023-05-07T12:08:21;22.20;99.90
44565;DHT22;30275;51.822;-0.326;2023-05-07T12:10:50;22.80;99.90
44565;DHT22;30275;51.822;-0.326;2023-05-07T12:13:17;23.30;99.90
44565;DHT22;30275;51.822;-0.326;2023-05-07T12:15:44;23.40;99.90
44565;DHT22;30275;51.822;-0.326;2023-05-07T12:18:11;23.80;99.90
44565;DHT22;30275;51.822;-0.326;2023-05-07T12:20:37;22.20;99.90
44565;DHT22;30275;51.822;-0.326;2023-05-07T12:23:03;22.30;99.90
44565;DHT22;30275;51.822;-0.326;2023-05-07T12:25:35;21.10;99.90
44565;DHT22;30275;51.822;-0.326;2023-05-07T12:28:05;21.00;99.90
44565;DHT22;30275;51.822;-0.326;2023-05-07T12:30:40;20.80;99.90
44565;DHT22;30275;51.822;-0.326;2023-05-07T12:33:06;21.20;99.90
44565;DHT22;30275;51.822;-0.326;2023-05-07T12:35:35;21.50;99.90
44565;DHT22;30275;51.822;-0.326;2023-05-07T12:38:01;22.10;99.90
44565;DHT22;30275;51.822;-0.326;2023-05-07T12:40:40;21.80;99.90
44565;DHT22;30275;51.822;-0.326;2023-05-07T12:43:07;21.20;99.90
44565;DHT22;30275;51.822;-0.326;2023-05-07T12:45:41;20.80;99.90
44565;DHT22;30275;51.822;-0.326;2023-05-07T12:48:09;20.60;99.90
44565;DHT22;30275;51.822;-0.326;2023-05-07T12:50:35;20.70;99.90
44565;DHT22;30275;51.822;-0.326;2023-05-07T12:53:03;20.90;99.90
44565;DHT22;30275;51.822;-0.326;2023-05-07T12:55:31;21.50;99.90
44565;DHT22;30275;51.822;-0.326;2023-05-07T12:58:00;21.30;99.90
44565;DHT22;30275;51.822;-0.326;2023-05-07T13:00:37;21.70;99.90
44565;DHT22;30275;51.822;-0.326;2023-05-07T13:03:03;21.50;99.90
44565;DHT22;30275;51.822;-0.326;2023-05-07T13:05:29;21.50;99.90
44565;DHT22;30275;51.822;-0.326;2023-05-07T13:07:55;21.90;99.90
44565;DHT22;30275;51.822;-0.326;2023-05-07T13:10:22;22.30;99.90
44565;DHT22;30275;51.822;-0.326;2023-05-07T13:12:48;22.00;99.90
44565;DHT22;30275;51.822;-0.326;2023-05-07T13:15:14;21.80;99.90
44565;DHT22;30275;51.822;-0.326;2023-05-07T13:17:40;22.30;99.90
44565;DHT22;30275;51.822;-0.326;2023-05-07T13:20:06;21.80;99.90
44565;DHT22;30275;51.822;-0.326;2023-05-07T13:22:33;21.90;99.90
44565;DHT22;30275;51.822;-0.326;2023-05-07T13:24:59;21.30;99.90
44565;DHT22;30275;51.822;-0.326;2023-05-07T13:27:24;21.50;99.90
44565;DHT22;30275;51.822;-0.326;2023-05-07T13:29:50;21.20;99.90
44565;DHT22;30275;51.822;-0.326;2023-05-07T13:32:16;21.10;99.90
44565;DHT22;30275;51.822;-0.326;2023-05-07T13:34:41;21.70;99.90
44565;DHT22;30275;51.822;-0.326;2023-05-07T13:37:07;21.70;99.90
44565;DHT22;30275;51.822;-0.326;2023-05-07T13:39:33;21.50;99.90
44565;DHT22;30275;51.822;-0.326;2023-05-07T13:41:59;21.70;99.90
44565;DHT22;30275;51.822;-0.326;2023-05-07T13:44:24;21.80;99.90
44565;DHT22;30275;51.822;-0.326;2023-05-07T13:46:50;21.70;99.90
44565;DHT22;30275;51.822;-0.326;2023-05-07T13:49:16;21.70;99.90
44565;DHT22;30275;51.822;-0.326;2023-05-07T13:51:42;21.00;99.90
44565;DHT22;30275;51.822;-0.326;2023-05-07T13:54:07;21.00;99.90
44565;DHT22;30275;51.822;-0.326;2023-05-07T13:56:33;21.10;99.90
44565;DHT22;30275;51.822;-0.326;2023-05-07T13:58:59;21.40;99.90
44565;DHT22;30275;51.822;-0.326;2023-05-07T14:01:24;21.50;99.90
44565;DHT22;30275;51.822;-0.326;2023-05-07T14:03:50;21.40;99.90
44565;DHT22;30275;51.822;-0.326;2023-05-07T14:06:15;21.50;99.90
44565;DHT22;30275;51.822;-0.326;2023-05-07T14:08:41;21.30;99.90
44565;DHT22;30275;51.822;-0.326;2023-05-07T14:11:06;21.00;99.90
44565;DHT22;30275;51.822;-0.326;2023-05-07T14:13:32;20.90;99.90
44565;DHT22;30275;51.822;-0.326;2023-05-07T14:15:59;21.00;99.90
44565;DHT22;30275;51.822;-0.326;2023-05-07T14:18:26;21.20;99.90
44565;DHT22;30275;51.822;-0.326;2023-05-07T14:20:51;21.50;99.90
44565;DHT22;30275;51.822;-0.326;2023-05-07T14:23:17;21.60;99.90
44565;DHT22;30275;51.822;-0.326;2023-05-07T14:25:45;21.70;99.90
44565;DHT22;30275;51.822;-0.326;2023-05-07T14:28:13;22.10;99.90
44565;DHT22;30275;51.822;-0.326;2023-05-07T14:30:38;22.20;99.60
44565;DHT22;30275;51.822;-0.326;2023-05-07T14:33:04;22.70;99.90
44565;DHT22;30275;51.822;-0.326;2023-05-07T14:35:30;22.70;98.10
44565;DHT22;30275;51.822;-0.326;2023-05-07T14:37:55;22.90;98.00
44565;DHT22;30275;51.822;-0.326;2023-05-07T14:40:21;22.60;96.50
44565;DHT22;30275;51.822;-0.326;2023-05-07T14:42:46;22.60;98.70
44565;DHT22;30275;51.822;-0.326;2023-05-07T14:45:12;22.40;98.80
44565;DHT22;30275;51.822;-0.326;2023-05-07T14:47:38;22.30;99.70
44565;DHT22;30275;51.822;-0.326;2023-05-07T14:50:04;21.90;99.80
44565;DHT22;30275;51.822;-0.326;2023-05-07T14:52:29;21.70;99.60
44565;DHT22;30275;51.822;-0.326;2023-05-07T14:54:55;21.60;99.90
44565;DHT22;30275;51.822;-0.326;2023-05-07T14:57:21;21.60;99.90
44565;DHT22;30275;51.822;-0.326;2023-05-07T14:59:46;21.90;99.90
44565;DHT22;30275;51.822;-0.326;2023-05-07T15:02:12;22.10;99.40
44565;DHT22;30275;51.822;-0.326;2023-05-07T15:04:38;22.40;99.40
44565;DHT22;30275;51.822;-0.326;2023-05-07T15:07:11;22.30;99.40
44565;DHT22;30275;51.822;-0.326;2023-05-07T15:09:37;22.00;99.20
44565;DHT22;30275;51.822;-0.326;2023-05-07T15:12:02;21.70;98.80
44565;DHT22;30275;51.822;-0.326;2023-05-07T15:14:29;21.50;98.50
44565;DHT22;30275;51.822;-0.326;2023-05-07T15:16:54;21.50;99.50
44565;DHT22;30275;51.822;-0.326;2023-05-07T15:19:20;21.00;99.00
44565;DHT22;30275;51.822;-0.326;2023-05-07T15:21:47;20.80;99.60